createdAt,value
2023-03-30T00:00:18.325Z,4.25
2023-03-30T00:02:50.844Z,5.05
2023-03-30T00:05:18.651Z,5.55
2023-03-30T00:07:45.764Z,3.72
2023-03-30T00:10:14.686Z,4.28
2023-03-30T00:12:43.531Z,10.65
2023-03-30T00:15:12.375Z,4.05
2023-03-30T00:17:39.589Z,4.53
2023-03-30T00:20:12.073Z,6.90
2023-03-30T00:22:40.184Z,6.18
2023-03-30T00:25:12.365Z,6.00
2023-03-30T00:27:40.580Z,5.00
2023-03-30T00:30:10.347Z,4.50
2023-03-30T00:32:37.028Z,4.15
2023-03-30T00:35:05.279Z,5.43
2023-03-30T00:37:32.405Z,4.60
2023-03-30T00:39:58.946Z,6.55
2023-03-30T00:42:25.564Z,5.00
2023-03-30T00:45:23.082Z,3.90
2023-03-30T00:48:12.587Z,4.57
2023-03-30T00:50:52.752Z,6.63
2023-03-30T00:53:25.392Z,3.65
2023-03-30T00:55:53.974Z,4.15
2023-03-30T00:58:22.385Z,3.65
2023-03-30T01:00:48.956Z,4.47
2023-03-30T01:03:35.129Z,4.25
2023-03-30T01:06:05.399Z,4.82
2023-03-30T01:08:32.638Z,3.85
2023-03-30T01:11:03.939Z,4.80
2023-03-30T01:13:34.952Z,3.25
2023-03-30T01:16:15.340Z,3.83
2023-03-30T01:18:54.687Z,4.18
2023-03-30T01:21:46.213Z,3.67
2023-03-30T01:24:18.373Z,4.68
2023-03-30T01:26:56.423Z,3.95
2023-03-30T01:30:02.048Z,5.22
2023-03-30T01:32:49.955Z,3.10
2023-03-30T01:35:37.129Z,4.10
2023-03-30T01:38:09.580Z,3.92
2023-03-30T01:40:40.295Z,4.93
2023-03-30T01:43:19.383Z,5.15
2023-03-30T01:46:04.891Z,4.68
2023-03-30T01:48:45.774Z,3.25
2023-03-30T01:51:27.050Z,3.10
2023-03-30T01:54:00.766Z,3.38
2023-03-30T01:59:24.563Z,3.55
2023-03-30T02:01:54.216Z,4.20
2023-03-30T02:04:23.739Z,5.03
2023-03-30T02:06:59.589Z,3.45
2023-03-30T02:09:27.858Z,5.00
2023-03-30T02:11:55.470Z,5.05
2023-03-30T02:14:28.876Z,3.08
2023-03-30T02:17:28.673Z,4.93
2023-03-30T02:19:58.022Z,3.50
2023-03-30T02:22:26.774Z,3.25
2023-03-30T02:24:55.991Z,4.03
2023-03-30T02:27:23.335Z,4.05
2023-03-30T02:29:50.049Z,3.28
2023-03-30T02:32:22.880Z,3.80
2023-03-30T02:34:58.423Z,4.37
2023-03-30T02:37:40.759Z,3.95
2023-03-30T02:40:43.419Z,4.03
2023-03-30T02:43:37.823Z,4.22
2023-03-30T02:46:04.264Z,3.28
2023-03-30T02:48:43.508Z,3.70
2023-03-30T02:51:43.719Z,2.13
2023-03-30T02:54:17.860Z,2.70
2023-03-30T02:56:58.899Z,3.15
2023-03-30T02:59:35.978Z,3.25
2023-03-30T03:02:14.134Z,4.05
2023-03-30T03:04:43.577Z,3.65
2023-03-30T03:07:14.321Z,5.05
2023-03-30T03:09:41.189Z,4.28
2023-03-30T03:12:07.919Z,3.50
2023-03-30T03:14:34.415Z,2.97
2023-03-30T03:17:00.994Z,2.60
2023-03-30T03:19:27.549Z,2.00
2023-03-30T03:21:54.115Z,3.53
2023-03-30T03:24:20.751Z,5.35
2023-03-30T03:26:47.610Z,2.78
2023-03-30T03:29:14.445Z,4.18
2023-03-30T03:31:41.476Z,2.97
2023-03-30T03:34:08.063Z,3.63
2023-03-30T03:36:34.715Z,3.55
2023-03-30T03:39:01.269Z,2.92
2023-03-30T03:41:27.868Z,5.93
2023-03-30T03:43:54.365Z,2.92
2023-03-30T03:46:20.979Z,4.32
2023-03-30T03:48:47.558Z,3.83
2023-03-30T03:51:14.448Z,4.50
2023-03-30T03:53:41.004Z,4.88
2023-03-30T03:56:08.144Z,3.60
2023-03-30T03:58:35.315Z,2.33
2023-03-30T04:01:03.266Z,1.95
2023-03-30T04:03:30.576Z,2.35
2023-03-30T04:06:01.272Z,3.10
2023-03-30T04:08:28.851Z,3.05
2023-03-30T04:10:55.656Z,2.22
2023-03-30T04:13:22.195Z,3.42
2023-03-30T04:15:48.790Z,4.78
2023-03-30T04:18:15.512Z,2.70
2023-03-30T04:20:42.095Z,2.35
2023-03-30T04:23:09.784Z,4.22
2023-03-30T04:25:36.392Z,3.47
2023-03-30T04:28:04.990Z,2.67
2023-03-30T04:30:31.653Z,4.63
2023-03-30T04:33:04.727Z,3.55
2023-03-30T04:35:34.546Z,5.82
2023-03-30T04:38:02.164Z,8.23
2023-03-30T04:40:29.015Z,6.93
2023-03-30T04:43:02.108Z,4.68
2023-03-30T04:45:30.286Z,5.57
2023-03-30T04:47:56.903Z,4.05
2023-03-30T04:50:23.615Z,5.32
2023-03-30T04:52:50.362Z,5.00
2023-03-30T04:55:17.109Z,4.82
2023-03-30T04:57:43.607Z,6.20
2023-03-30T05:00:10.648Z,4.57
2023-03-30T05:02:37.264Z,5.82
2023-03-30T05:05:04.353Z,5.90
2023-03-30T05:07:30.989Z,4.35
2023-03-30T05:09:57.523Z,6.25
2023-03-30T05:12:24.164Z,5.78
2023-03-30T05:14:50.738Z,6.18
2023-03-30T05:17:17.353Z,7.07
2023-03-30T05:19:43.956Z,5.63
2023-03-30T05:22:10.592Z,4.32
2023-03-30T05:24:37.091Z,8.32
2023-03-30T05:27:05.013Z,7.10
2023-03-30T05:29:31.912Z,6.03
2023-03-30T05:31:58.514Z,6.53
2023-03-30T05:34:25.070Z,7.88
2023-03-30T05:36:51.566Z,7.07
2023-03-30T05:39:18.120Z,9.38
2023-03-30T05:41:44.612Z,8.65
2023-03-30T05:44:11.248Z,6.18
2023-03-30T05:46:37.805Z,5.32
2023-03-30T05:49:04.411Z,7.65
2023-03-30T05:51:31.117Z,9.27
2023-03-30T05:53:58.271Z,8.02
2023-03-30T05:56:25.197Z,9.15
2023-03-30T05:58:51.848Z,7.78
2023-03-30T06:01:20.826Z,9.23
2023-03-30T06:03:48.010Z,9.00
2023-03-30T06:06:14.697Z,6.13
2023-03-30T06:08:43.077Z,8.38
2023-03-30T06:11:09.606Z,10.65
2023-03-30T06:13:36.279Z,7.15
2023-03-30T06:16:03.802Z,11.00
2023-03-30T06:18:30.765Z,8.43
2023-03-30T06:20:57.459Z,9.15
2023-03-30T06:23:24.040Z,10.32
2023-03-30T06:25:53.173Z,11.40
2023-03-30T06:28:20.817Z,10.30
2023-03-30T06:30:49.333Z,9.32
2023-03-30T06:33:17.641Z,7.95
2023-03-30T06:35:52.577Z,8.32
2023-03-30T06:38:20.633Z,13.45
2023-03-30T06:40:47.836Z,9.68
2023-03-30T06:43:22.956Z,11.93
2023-03-30T06:45:51.257Z,12.85
2023-03-30T06:48:19.757Z,7.30
2023-03-30T06:50:49.348Z,8.40
2023-03-30T06:53:16.110Z,8.05
2023-03-30T06:55:43.377Z,8.02
2023-03-30T06:58:10.518Z,12.32
2023-03-30T07:00:37.339Z,10.68
2023-03-30T07:03:04.219Z,10.77
2023-03-30T07:05:31.222Z,10.48
2023-03-30T07:07:58.297Z,15.02
2023-03-30T07:10:24.852Z,8.32
2023-03-30T07:12:51.510Z,6.88
2023-03-30T07:15:18.274Z,8.88
2023-03-30T07:17:45.086Z,11.93
2023-03-30T07:20:15.589Z,8.85
2023-03-30T07:22:42.572Z,11.82
2023-03-30T07:25:10.078Z,12.32
2023-03-30T07:27:38.072Z,11.60
2023-03-30T07:30:20.512Z,13.45
2023-03-30T07:32:50.478Z,13.93
2023-03-30T07:35:17.368Z,13.63
2023-03-30T07:37:43.925Z,14.00
2023-03-30T07:40:11.808Z,10.02
2023-03-30T07:42:38.507Z,14.13
2023-03-30T07:45:05.688Z,10.82
2023-03-30T07:47:32.294Z,15.32
2023-03-30T07:49:58.939Z,11.82
2023-03-30T07:52:25.900Z,9.75
2023-03-30T07:54:54.593Z,14.25
2023-03-30T07:57:22.624Z,14.98
2023-03-30T07:59:49.369Z,15.18
2023-03-30T08:02:16.055Z,11.73
2023-03-30T08:04:43.977Z,13.57
2023-03-30T08:07:11.660Z,15.05
2023-03-30T08:09:38.456Z,17.33
2023-03-30T08:12:06.059Z,19.95
2023-03-30T08:14:32.686Z,9.68
2023-03-30T08:16:59.273Z,20.50
2023-03-30T08:19:27.105Z,15.10
2023-03-30T08:21:53.659Z,17.77
2023-03-30T08:24:20.413Z,12.82
2023-03-30T08:26:47.161Z,13.65
2023-03-30T08:29:13.656Z,16.23
2023-03-30T08:31:40.280Z,15.00
2023-03-30T08:34:08.000Z,13.93
2023-03-30T08:36:34.875Z,13.57
2023-03-30T08:39:01.432Z,14.63
2023-03-30T08:41:27.965Z,14.20
2023-03-30T08:44:06.738Z,12.88
2023-03-30T08:46:33.952Z,11.45
2023-03-30T08:49:07.852Z,9.57
2023-03-30T08:51:35.941Z,13.77
2023-03-30T08:54:07.069Z,14.45
2023-03-30T08:56:44.235Z,13.45
2023-03-30T08:59:29.140Z,12.32
2023-03-30T09:02:02.310Z,12.07
2023-03-30T09:04:38.116Z,12.93
2023-03-30T09:07:14.386Z,14.85
2023-03-30T09:09:45.533Z,8.45
2023-03-30T09:12:47.670Z,12.07
2023-03-30T09:15:25.914Z,7.43
2023-03-30T09:18:12.634Z,11.93
2023-03-30T09:20:43.646Z,13.15
2023-03-30T09:23:17.726Z,9.27
2023-03-30T09:25:54.309Z,11.70
2023-03-30T09:28:59.423Z,9.68
2023-03-30T09:31:34.900Z,10.05
2023-03-30T09:34:27.457Z,11.80
2023-03-30T09:36:57.295Z,12.73
2023-03-30T09:39:31.023Z,9.27
2023-03-30T09:42:19.582Z,9.50
2023-03-30T09:45:00.000Z,13.23
2023-03-30T09:47:28.369Z,11.40
2023-03-30T09:49:59.766Z,8.95
2023-03-30T09:52:29.495Z,8.02
2023-03-30T09:54:57.267Z,7.70
2023-03-30T09:57:33.008Z,10.95
2023-03-30T10:00:01.302Z,12.63
2023-03-30T10:02:31.380Z,15.38
2023-03-30T10:05:03.678Z,7.43
2023-03-30T10:07:40.599Z,12.15
2023-03-30T10:10:32.604Z,12.57
2023-03-30T10:13:14.375Z,11.50
2023-03-30T10:15:47.108Z,16.13
2023-03-30T10:18:27.808Z,10.83
2023-03-30T10:21:05.032Z,11.90
2023-03-30T10:23:34.407Z,10.23
2023-03-30T10:26:04.126Z,11.30
2023-03-30T10:28:33.959Z,14.73
2023-03-30T10:31:05.426Z,11.63
2023-03-30T10:33:39.477Z,10.18
2023-03-30T10:36:07.648Z,11.60
2023-03-30T10:38:34.998Z,11.52
2023-03-30T10:41:08.448Z,8.75
2023-03-30T10:43:36.780Z,12.35
2023-03-30T10:46:19.382Z,8.57
2023-03-30T10:49:02.757Z,15.20
2023-03-30T10:51:47.884Z,8.95
2023-03-30T10:54:32.754Z,12.57
2023-03-30T10:57:18.783Z,8.07
2023-03-30T11:00:00.194Z,11.35
2023-03-30T11:02:39.105Z,11.63
2023-03-30T11:05:16.880Z,11.68
2023-03-30T11:07:56.773Z,10.38
2023-03-30T11:10:32.932Z,9.32
2023-03-30T11:13:04.554Z,10.00
2023-03-30T11:15:42.950Z,12.20
2023-03-30T11:18:12.462Z,8.65
2023-03-30T11:20:55.518Z,10.25
2023-03-30T11:23:33.419Z,12.75
2023-03-30T11:26:08.666Z,8.60
2023-03-30T11:29:07.020Z,11.52
2023-03-30T11:31:53.865Z,13.25
2023-03-30T11:34:34.696Z,10.20
2023-03-30T11:37:12.656Z,12.80
2023-03-30T11:39:45.444Z,12.20
2023-03-30T11:42:27.099Z,12.27
2023-03-30T11:44:53.842Z,12.27
2023-03-30T11:47:32.286Z,11.45
2023-03-30T11:50:13.735Z,11.60
2023-03-30T11:53:02.234Z,10.65
2023-03-30T11:55:46.444Z,9.50
2023-03-30T11:58:35.640Z,9.73
2023-03-30T12:01:10.674Z,12.50
2023-03-30T12:03:44.198Z,11.65
2023-03-30T12:09:06.174Z,12.50
2023-03-30T12:11:52.422Z,10.82
2023-03-30T12:14:21.716Z,14.00
2023-03-30T12:16:52.457Z,11.90
2023-03-30T12:19:26.458Z,12.35
2023-03-30T12:22:00.137Z,9.82
2023-03-30T12:27:16.259Z,13.70
2023-03-30T12:30:02.491Z,13.25
2023-03-30T12:32:30.894Z,11.20
2023-03-30T12:34:58.442Z,10.45
2023-03-30T12:37:37.584Z,12.30
2023-03-30T12:40:08.763Z,12.25
2023-03-30T12:42:46.353Z,11.70
2023-03-30T12:45:16.507Z,11.18
2023-03-30T12:48:14.561Z,8.68
2023-03-30T12:51:18.404Z,12.00
2023-03-30T12:54:10.945Z,13.65
2023-03-30T12:56:49.525Z,13.35
2023-03-30T12:59:51.055Z,13.88
2023-03-30T13:02:47.264Z,10.93
2023-03-30T13:05:24.505Z,14.02
2023-03-30T13:07:54.825Z,12.27
2023-03-30T13:10:30.096Z,13.27
2023-03-30T13:12:58.472Z,10.63
2023-03-30T13:15:46.940Z,7.68
2023-03-30T13:18:13.535Z,11.30
2023-03-30T13:20:46.138Z,13.27
2023-03-30T13:23:12.643Z,11.82
2023-03-30T13:25:45.230Z,9.75
2023-03-30T13:28:49.387Z,14.18
2023-03-30T13:31:34.594Z,12.38
2023-03-30T13:34:20.007Z,10.85
2023-03-30T13:37:17.295Z,10.60
2023-03-30T13:40:24.335Z,10.25
2023-03-30T13:43:18.061Z,12.13
2023-03-30T13:46:16.360Z,9.88
2023-03-30T13:49:23.336Z,11.95
2023-03-30T13:51:49.959Z,12.15
2023-03-30T13:54:28.246Z,10.65
2023-03-30T13:57:04.224Z,10.90
2023-03-30T13:59:35.019Z,12.13
2023-03-30T14:02:02.265Z,10.70
2023-03-30T14:04:34.423Z,12.77
2023-03-30T14:07:13.933Z,16.10
2023-03-30T14:09:40.587Z,12.65
2023-03-30T14:12:07.723Z,12.65
2023-03-30T14:14:38.520Z,8.68
2023-03-30T14:17:22.020Z,11.60
2023-03-30T14:20:09.378Z,11.40
2023-03-30T14:22:41.027Z,8.68
2023-03-30T14:25:39.176Z,10.30
2023-03-30T14:28:20.025Z,10.95
2023-03-30T14:30:51.845Z,12.65
2023-03-30T14:33:18.839Z,11.20
2023-03-30T14:35:58.389Z,12.80
2023-03-30T14:38:30.058Z,15.98
2023-03-30T14:40:56.868Z,13.27
2023-03-30T14:43:27.235Z,10.38
2023-03-30T14:45:56.653Z,11.25
2023-03-30T14:48:28.702Z,10.32
2023-03-30T14:50:55.593Z,10.98
2023-03-30T14:53:27.633Z,11.95
2023-03-30T14:55:57.324Z,13.63
2023-03-30T14:58:30.083Z,10.70
2023-03-30T15:00:59.454Z,16.17
2023-03-30T15:03:34.337Z,10.02
2023-03-30T15:06:03.100Z,10.57
2023-03-30T15:08:36.789Z,8.52
2023-03-30T15:13:53.727Z,14.15
2023-03-30T15:16:29.886Z,13.45
2023-03-30T15:19:04.314Z,9.60
2023-03-30T15:21:34.108Z,9.90
2023-03-30T15:24:01.391Z,11.13
2023-03-30T15:26:28.642Z,10.43
2023-03-30T15:28:59.083Z,12.18
2023-03-30T15:31:28.993Z,12.13
2023-03-30T15:33:57.936Z,15.50
2023-03-30T15:36:33.594Z,10.88
2023-03-30T15:39:00.301Z,12.13
2023-03-30T15:41:47.652Z,12.77
2023-03-30T15:44:21.621Z,14.02
2023-03-30T15:46:55.100Z,12.10
2023-03-30T15:49:25.674Z,11.88
2023-03-30T15:51:55.479Z,13.48
2023-03-30T15:54:40.250Z,15.57
2023-03-30T15:57:18.496Z,19.67
2023-03-30T15:59:57.122Z,23.00
2023-03-30T16:02:37.824Z,20.30
2023-03-30T16:05:08.672Z,23.33
2023-03-30T16:07:36.241Z,20.58
2023-03-30T16:10:02.997Z,19.08
2023-03-30T16:12:31.378Z,18.92
2023-03-30T16:14:58.332Z,16.60
2023-03-30T16:17:25.659Z,17.20
2023-03-30T16:19:52.313Z,19.10
2023-03-30T16:22:18.851Z,16.17
2023-03-30T16:24:46.190Z,17.70
2023-03-30T16:27:13.128Z,21.92
2023-03-30T16:29:39.711Z,19.17
2023-03-30T16:32:06.438Z,19.20
2023-03-30T16:34:33.020Z,18.65
2023-03-30T16:36:59.631Z,17.40
2023-03-30T16:39:28.839Z,16.70
2023-03-30T16:41:56.004Z,16.30
2023-03-30T16:44:24.202Z,16.30
2023-03-30T16:46:51.558Z,15.70
2023-03-30T16:49:24.387Z,17.17
2023-03-30T16:51:54.469Z,15.40
2023-03-30T16:54:31.091Z,13.90
2023-03-30T16:57:00.001Z,17.42
2023-03-30T16:59:30.119Z,16.30
2023-03-30T17:01:57.139Z,18.90
2023-03-30T17:04:23.695Z,15.75
2023-03-30T17:06:50.505Z,15.65
2023-03-30T17:09:19.370Z,19.20
2023-03-30T17:11:47.758Z,17.33
2023-03-30T17:14:15.373Z,16.25
2023-03-30T17:16:43.440Z,16.48
2023-03-30T17:19:12.726Z,15.98
2023-03-30T17:21:40.405Z,20.35
2023-03-30T17:24:07.246Z,14.80
2023-03-30T17:26:33.800Z,11.80
2023-03-30T17:29:00.615Z,18.48
2023-03-30T17:31:27.312Z,13.73
2023-03-30T17:33:54.578Z,15.27
2023-03-30T17:36:23.448Z,16.90
2023-03-30T17:38:51.287Z,14.02
2023-03-30T17:41:19.649Z,14.27
2023-03-30T17:43:47.881Z,15.20
2023-03-30T17:46:17.091Z,14.35
2023-03-30T17:48:43.705Z,21.20
2023-03-30T17:51:10.371Z,15.38
2023-03-30T17:53:37.529Z,14.32
2023-03-30T17:56:04.254Z,14.52
2023-03-30T17:58:36.038Z,16.08
2023-03-30T18:01:06.228Z,16.25
2023-03-30T18:03:33.502Z,17.80
2023-03-30T18:06:02.038Z,15.93
2023-03-30T18:08:29.465Z,13.55
2023-03-30T18:11:00.892Z,15.27
2023-03-30T18:13:29.648Z,20.15
2023-03-30T18:15:58.397Z,18.85
2023-03-30T18:18:27.406Z,18.02
2023-03-30T18:20:56.321Z,18.08
2023-03-30T18:23:23.563Z,22.58
2023-03-30T18:25:50.639Z,20.48
2023-03-30T18:28:19.858Z,20.20
2023-03-30T18:30:47.039Z,17.25
2023-03-30T18:33:16.633Z,15.07
2023-03-30T18:35:45.374Z,15.27
2023-03-30T18:38:13.418Z,19.98
2023-03-30T18:40:43.983Z,17.70
2023-03-30T18:43:11.060Z,16.05
2023-03-30T18:45:40.292Z,15.57
2023-03-30T18:48:08.853Z,17.17
2023-03-30T18:50:39.335Z,17.73
2023-03-30T18:53:08.734Z,16.67
2023-03-30T18:55:37.670Z,14.57
2023-03-30T18:58:14.639Z,17.77
2023-03-30T19:00:41.341Z,18.00
2023-03-30T19:03:08.180Z,18.00
2023-03-30T19:05:35.649Z,16.67
2023-03-30T19:08:02.222Z,17.17
2023-03-30T19:10:31.625Z,19.58
2023-03-30T19:12:59.046Z,20.23
2023-03-30T19:15:31.765Z,18.88
2023-03-30T19:17:58.452Z,19.00
2023-03-30T19:20:27.132Z,20.08
2023-03-30T19:22:53.802Z,20.60
2023-03-30T19:25:22.488Z,19.58
2023-03-30T19:28:02.053Z,19.20
2023-03-30T19:30:36.123Z,19.50
2023-03-30T19:33:09.643Z,21.10
2023-03-30T19:35:36.453Z,22.17
2023-03-30T19:38:03.702Z,22.05
2023-03-30T19:40:30.273Z,21.33
2023-03-30T19:42:56.891Z,20.17
2023-03-30T19:45:23.836Z,22.23
2023-03-30T19:47:51.490Z,22.85
2023-03-30T19:50:20.579Z,21.13
2023-03-30T19:52:49.991Z,22.98
2023-03-30T19:55:18.097Z,23.80
2023-03-30T19:57:44.652Z,18.92
2023-03-30T20:00:15.387Z,22.08
2023-03-30T20:02:45.752Z,22.40
2023-03-30T20:05:13.274Z,22.92
2023-03-30T20:07:40.724Z,37.90
2023-03-30T20:10:10.722Z,28.08
2023-03-30T20:12:37.687Z,27.27
2023-03-30T20:15:06.335Z,27.08
2023-03-30T20:17:34.219Z,29.13
2023-03-30T20:20:06.740Z,25.30
2023-03-30T20:22:35.476Z,30.08
2023-03-30T20:25:02.885Z,25.73
2023-03-30T20:27:29.405Z,25.40
2023-03-30T20:29:55.993Z,24.15
2023-03-30T20:32:25.747Z,24.98
2023-03-30T20:34:52.701Z,23.90
2023-03-30T20:37:19.399Z,28.80
2023-03-30T20:39:45.942Z,20.58
2023-03-30T20:42:12.478Z,22.98
2023-03-30T20:44:41.147Z,21.65
2023-03-30T20:47:08.868Z,21.10
2023-03-30T20:49:37.631Z,25.25
2023-03-30T20:52:04.582Z,24.58
2023-03-30T20:54:31.490Z,20.92
2023-03-30T20:56:58.148Z,24.23
2023-03-30T20:59:24.681Z,20.23
2023-03-30T21:01:52.059Z,21.25
2023-03-30T21:04:19.555Z,26.33
2023-03-30T21:06:46.827Z,23.30
2023-03-30T21:09:13.689Z,23.05
2023-03-30T21:11:40.444Z,19.67
2023-03-30T21:14:08.592Z,18.73
2023-03-30T21:16:36.776Z,21.60
2023-03-30T21:19:04.678Z,20.70
2023-03-30T21:21:33.763Z,22.65
2023-03-30T21:24:01.659Z,26.48
2023-03-30T21:26:29.292Z,19.55
2023-03-30T21:28:56.272Z,19.50
2023-03-30T21:31:23.307Z,19.00
2023-03-30T21:33:50.071Z,21.75
2023-03-30T21:36:16.793Z,18.85
2023-03-30T21:38:43.441Z,19.90
2023-03-30T21:41:21.095Z,19.25
2023-03-30T21:43:48.181Z,18.05
2023-03-30T21:46:17.478Z,19.98
2023-03-30T21:48:45.871Z,17.98
2023-03-30T21:51:35.336Z,17.08
2023-03-30T21:54:01.938Z,19.15
2023-03-30T21:56:30.310Z,22.00
2023-03-30T21:58:57.764Z,16.10
2023-03-30T22:01:24.534Z,18.90
2023-03-30T22:03:52.247Z,14.95
2023-03-30T22:06:19.526Z,19.25
2023-03-30T22:08:46.505Z,14.30
2023-03-30T22:11:20.273Z,21.80
2023-03-30T22:16:28.352Z,16.73
2023-03-30T22:18:55.660Z,16.63
2023-03-30T22:21:24.526Z,18.42
2023-03-30T22:23:52.597Z,15.50
2023-03-30T22:26:19.125Z,21.15
2023-03-30T22:28:45.680Z,13.38
2023-03-30T22:31:14.853Z,14.43
2023-03-30T22:33:41.712Z,20.13
2023-03-30T22:36:20.704Z,19.92
2023-03-30T22:38:48.878Z,11.45
2023-03-30T22:41:15.874Z,13.35
2023-03-30T22:43:42.532Z,15.73
2023-03-30T22:46:09.230Z,11.60
2023-03-30T22:48:36.452Z,17.75
2023-03-30T22:51:04.126Z,12.05
2023-03-30T22:53:31.797Z,14.85
2023-03-30T22:55:58.371Z,18.92
2023-03-30T22:58:24.940Z,16.05
2023-03-30T23:00:51.873Z,13.70
2023-03-30T23:03:22.625Z,16.85
2023-03-30T23:05:52.591Z,11.32
2023-03-30T23:08:19.382Z,14.73
2023-03-30T23:10:45.905Z,10.30
2023-03-30T23:13:13.800Z,8.60
2023-03-30T23:15:40.511Z,14.15
2023-03-30T23:18:07.192Z,10.43
2023-03-30T23:20:33.719Z,13.82
2023-03-30T23:23:00.215Z,17.15
2023-03-30T23:25:27.271Z,14.43
2023-03-30T23:27:53.816Z,11.27
2023-03-30T23:30:20.329Z,14.60
2023-03-30T23:32:46.916Z,14.73
2023-03-30T23:35:13.464Z,15.50
2023-03-30T23:37:40.216Z,11.30
2023-03-30T23:40:07.967Z,9.82
2023-03-30T23:42:34.562Z,10.95
2023-03-30T23:45:01.230Z,10.48
2023-03-30T23:47:27.873Z,11.38
2023-03-30T23:49:54.417Z,12.43
2023-03-30T23:52:21.099Z,10.85
2023-03-30T23:54:52.157Z,11.40
2023-03-30T23:57:19.992Z,10.73
2023-03-30T23:59:46.746Z,13.65
